createdAt,value
2022-10-29T00:02:26.189Z,4.87
2022-10-29T00:05:31.947Z,5.47
2022-10-29T00:08:40.560Z,5.33
2022-10-29T00:11:46.281Z,5.47
2022-10-29T00:14:55.537Z,4.73
2022-10-29T00:18:03.515Z,5.43
2022-10-29T00:21:13.782Z,5.50
2022-10-29T00:24:19.380Z,5.60
2022-10-29T00:27:26.367Z,6.23
2022-10-29T00:30:34.749Z,5.63
2022-10-29T00:33:41.286Z,5.80
2022-10-29T00:36:46.897Z,5.27
2022-10-29T00:39:53.900Z,5.57
2022-10-29T00:43:17.193Z,5.87
2022-10-29T00:46:34.342Z,5.40
2022-10-29T00:49:41.923Z,6.37
2022-10-29T00:52:50.816Z,6.67
2022-10-29T00:55:56.434Z,4.67
2022-10-29T00:59:03.725Z,4.70
2022-10-29T01:02:13.312Z,4.43
2022-10-29T01:05:23.455Z,4.90
2022-10-29T01:08:29.281Z,4.87
2022-10-29T01:11:47.246Z,4.43
2022-10-29T01:15:08.297Z,5.13
2022-10-29T01:18:25.696Z,6.47
2022-10-29T01:21:46.250Z,4.97
2022-10-29T01:25:09.906Z,4.50
2022-10-29T01:28:28.185Z,4.00
2022-10-29T01:31:41.750Z,4.73
2022-10-29T01:34:55.680Z,4.10
2022-10-29T01:38:13.286Z,3.90
2022-10-29T01:41:26.565Z,3.30
2022-10-29T01:44:40.035Z,3.50
2022-10-29T01:47:54.600Z,3.80
2022-10-29T01:51:03.619Z,3.53
2022-10-29T01:54:14.270Z,3.57
2022-10-29T01:57:34.488Z,3.57
2022-10-29T02:00:53.122Z,3.40
2022-10-29T02:04:07.730Z,2.80
2022-10-29T02:07:23.947Z,3.20
2022-10-29T02:10:34.199Z,2.97
2022-10-29T02:13:47.809Z,3.03
2022-10-29T02:16:56.444Z,3.53
2022-10-29T02:20:07.439Z,3.27
2022-10-29T02:23:13.438Z,3.07
2022-10-29T02:26:21.947Z,3.20
2022-10-29T02:29:27.592Z,2.90
2022-10-29T02:32:34.800Z,3.07
2022-10-29T02:35:43.167Z,3.20
2022-10-29T02:38:49.598Z,3.17
2022-10-29T02:41:55.407Z,3.33
2022-10-29T02:45:03.285Z,3.27
2022-10-29T02:48:09.532Z,3.20
2022-10-29T02:51:19.738Z,3.40
2022-10-29T02:54:25.631Z,3.47
2022-10-29T02:57:32.063Z,3.00
2022-10-29T03:00:37.675Z,3.30
2022-10-29T03:03:44.812Z,3.00
2022-10-29T03:06:53.218Z,3.90
2022-10-29T03:09:59.971Z,3.10
2022-10-29T03:13:07.860Z,3.33
2022-10-29T03:16:14.360Z,3.53
2022-10-29T03:19:20.021Z,3.70
2022-10-29T03:22:29.328Z,3.40
2022-10-29T03:25:34.946Z,3.20
2022-10-29T03:31:49.916Z,3.20
2022-10-29T03:34:59.825Z,3.07
2022-10-29T03:38:11.199Z,2.87
2022-10-29T03:41:18.608Z,2.93
2022-10-29T03:44:24.221Z,3.03
2022-10-29T03:47:31.052Z,3.03
2022-10-29T03:50:36.920Z,3.10
2022-10-29T03:53:46.446Z,3.13
2022-10-29T03:56:52.096Z,3.00
2022-10-29T03:59:59.144Z,3.13
2022-10-29T04:03:07.368Z,3.20
2022-10-29T04:06:15.982Z,3.33
2022-10-29T04:09:24.439Z,3.70
2022-10-29T04:12:30.895Z,3.83
2022-10-29T04:15:36.516Z,3.90
2022-10-29T04:18:43.031Z,3.60
2022-10-29T04:28:44.360Z,3.63
2022-10-29T04:31:51.143Z,3.87
2022-10-29T04:34:57.037Z,3.90
2022-10-29T04:38:10.426Z,4.00
2022-10-29T04:41:19.077Z,4.13
2022-10-29T04:44:26.135Z,4.50
2022-10-29T04:47:31.803Z,4.00
2022-10-29T04:50:40.774Z,4.87
2022-10-29T04:53:46.620Z,4.47
2022-10-29T04:56:56.167Z,4.13
2022-10-29T05:00:03.347Z,4.33
2022-10-29T05:03:09.922Z,4.77
2022-10-29T05:06:15.551Z,3.80
2022-10-29T05:09:22.315Z,4.67
2022-10-29T05:12:30.726Z,4.33
2022-10-29T05:15:37.540Z,4.80
2022-10-29T05:18:43.408Z,4.40
2022-10-29T05:21:49.887Z,5.10
2022-10-29T05:24:55.520Z,4.80
2022-10-29T05:28:10.515Z,4.67
2022-10-29T05:31:16.143Z,4.40
2022-10-29T05:34:22.974Z,4.47
2022-10-29T05:37:28.565Z,4.90
2022-10-29T05:40:35.630Z,4.83
2022-10-29T05:43:44.310Z,4.40
2022-10-29T05:46:51.835Z,4.57
2022-10-29T05:49:57.408Z,4.33
2022-10-29T05:53:06.239Z,4.63
2022-10-29T05:56:12.100Z,4.53
2022-10-29T05:59:21.342Z,4.50
2022-10-29T06:02:27.343Z,5.07
2022-10-29T06:05:34.150Z,4.73
2022-10-29T06:08:39.871Z,4.17
2022-10-29T06:11:46.328Z,4.50
2022-10-29T06:14:54.699Z,4.57
2022-10-29T06:18:01.210Z,4.30
2022-10-29T06:21:08.877Z,4.83
2022-10-29T06:24:15.403Z,4.63
2022-10-29T06:27:21.034Z,4.17
2022-10-29T06:30:33.611Z,5.07
2022-10-29T06:33:39.223Z,4.43
2022-10-29T06:36:46.324Z,5.07
2022-10-29T06:39:51.919Z,4.90
2022-10-29T06:43:03.547Z,4.70
2022-10-29T06:46:12.075Z,5.17
2022-10-29T06:49:18.495Z,5.63
2022-10-29T06:52:24.357Z,5.07
2022-10-29T06:55:31.586Z,4.63
2022-10-29T06:58:37.303Z,5.30
2022-10-29T07:01:46.863Z,4.87
2022-10-29T07:04:52.914Z,4.97
2022-10-29T07:07:59.761Z,4.33
2022-10-29T07:11:07.972Z,4.87
2022-10-29T07:14:14.463Z,4.47
2022-10-29T07:17:22.915Z,4.57
2022-10-29T07:20:29.872Z,4.13
2022-10-29T07:23:38.452Z,4.43
2022-10-29T07:26:44.879Z,4.77
2022-10-29T07:29:50.514Z,5.23
2022-10-29T07:32:59.783Z,4.83
2022-10-29T07:36:07.160Z,4.90
2022-10-29T07:39:13.611Z,5.17
2022-10-29T07:42:19.978Z,6.10
2022-10-29T07:45:26.500Z,4.70
2022-10-29T07:48:35.169Z,5.83
2022-10-29T07:51:41.934Z,4.90
2022-10-29T07:54:47.527Z,5.47
2022-10-29T07:58:03.539Z,4.80
2022-10-29T08:01:09.733Z,4.63
2022-10-29T08:04:19.844Z,5.23
2022-10-29T08:07:25.432Z,4.97
2022-10-29T08:10:33.260Z,5.07
2022-10-29T08:13:38.944Z,5.20
2022-10-29T08:16:45.444Z,5.40
2022-10-29T08:19:53.870Z,5.13
2022-10-29T08:23:03.524Z,4.93
2022-10-29T08:26:09.382Z,4.60
2022-10-29T08:29:15.845Z,4.73
2022-10-29T08:32:21.777Z,4.83
2022-10-29T08:35:31.345Z,5.13
2022-10-29T08:38:37.062Z,4.93
2022-10-29T08:41:55.889Z,5.10
2022-10-29T08:45:19.625Z,5.27
2022-10-29T08:48:38.410Z,4.37
2022-10-29T08:51:50.719Z,4.43
2022-10-29T08:55:06.980Z,5.10
2022-10-29T08:58:30.076Z,4.67
2022-10-29T09:01:37.258Z,4.53
2022-10-29T09:04:43.209Z,4.90
2022-10-29T09:08:19.081Z,4.53
2022-10-29T09:11:38.381Z,4.43
2022-10-29T09:15:03.749Z,3.90
2022-10-29T09:18:27.426Z,4.43
2022-10-29T09:21:41.308Z,4.00
2022-10-29T09:24:59.040Z,3.60
2022-10-29T09:28:21.855Z,4.23
2022-10-29T09:31:33.429Z,4.83
2022-10-29T09:34:46.302Z,4.73
2022-10-29T09:37:56.641Z,4.00
2022-10-29T09:41:07.840Z,4.00
2022-10-29T09:44:23.882Z,4.00
2022-10-29T09:47:42.157Z,3.70
2022-10-29T09:50:57.192Z,3.37
2022-10-29T09:54:03.873Z,3.57
2022-10-29T09:57:22.576Z,3.30
2022-10-29T10:00:31.871Z,3.40
2022-10-29T10:03:43.015Z,3.27
2022-10-29T10:07:07.911Z,3.40
2022-10-29T10:10:25.349Z,3.20
2022-10-29T10:13:37.105Z,3.00
2022-10-29T10:16:42.772Z,3.13
2022-10-29T10:19:49.893Z,3.97
2022-10-29T10:22:55.864Z,3.47
2022-10-29T10:26:04.354Z,3.17
2022-10-29T10:29:18.843Z,3.60
2022-10-29T10:32:28.914Z,3.23
2022-10-29T10:35:35.079Z,3.50
2022-10-29T10:38:44.901Z,3.37
2022-10-29T10:41:53.692Z,3.40
2022-10-29T10:45:06.230Z,3.43
2022-10-29T10:48:14.141Z,3.13
2022-10-29T10:51:27.835Z,3.60
2022-10-29T10:54:38.071Z,2.87
2022-10-29T10:57:51.750Z,2.60
2022-10-29T11:01:06.655Z,3.43
2022-10-29T11:04:20.754Z,3.90
2022-10-29T11:07:31.404Z,3.63
2022-10-29T11:10:43.048Z,3.53
2022-10-29T11:13:49.383Z,2.80
2022-10-29T11:17:03.568Z,3.10
2022-10-29T11:20:18.038Z,2.93
2022-10-29T11:23:35.325Z,3.97
2022-10-29T11:26:46.464Z,3.30
2022-10-29T11:29:58.973Z,3.20
2022-10-29T11:33:20.183Z,3.10
2022-10-29T11:36:29.702Z,3.37
2022-10-29T11:39:41.943Z,3.07
2022-10-29T11:42:50.723Z,3.67
2022-10-29T11:46:03.530Z,3.47
2022-10-29T11:49:30.075Z,3.77
2022-10-29T11:52:43.505Z,3.57
2022-10-29T11:55:59.625Z,4.00
2022-10-29T11:59:13.600Z,3.50
2022-10-29T12:02:34.813Z,3.23
2022-10-29T12:05:47.324Z,3.33
2022-10-29T12:09:06.335Z,3.57
2022-10-29T12:12:17.541Z,3.60
2022-10-29T12:15:29.538Z,3.00
2022-10-29T12:18:43.406Z,3.20
2022-10-29T12:21:58.618Z,3.80
2022-10-29T12:25:23.051Z,2.93
2022-10-29T12:28:39.200Z,3.97
2022-10-29T12:31:56.124Z,3.40
2022-10-29T12:35:07.388Z,3.10
2022-10-29T12:38:33.406Z,3.07
2022-10-29T12:41:44.454Z,2.77
2022-10-29T12:45:06.490Z,2.97
2022-10-29T12:48:19.429Z,3.07
2022-10-29T12:51:31.027Z,2.80
2022-10-29T12:54:44.048Z,2.43
2022-10-29T12:57:49.714Z,2.50
2022-10-29T13:00:56.242Z,3.30
2022-10-29T13:04:03.587Z,3.10
2022-10-29T13:07:26.447Z,2.73
2022-10-29T13:10:55.065Z,3.27
2022-10-29T13:14:04.641Z,2.80
2022-10-29T13:17:27.298Z,3.00
2022-10-29T13:20:40.326Z,3.23
2022-10-29T13:24:07.870Z,3.50
2022-10-29T13:27:39.308Z,3.77
2022-10-29T13:30:46.899Z,3.60
2022-10-29T13:33:54.545Z,3.30
2022-10-29T13:37:33.483Z,3.40
2022-10-29T13:41:15.117Z,3.47
2022-10-29T13:44:25.894Z,3.33
2022-10-29T13:47:33.157Z,4.00
2022-10-29T13:50:41.641Z,3.77
2022-10-29T13:53:55.909Z,3.67
2022-10-29T13:57:04.155Z,3.47
2022-10-29T14:00:21.243Z,3.50
2022-10-29T14:03:36.698Z,3.63
2022-10-29T14:06:43.423Z,3.73
2022-10-29T14:09:52.378Z,3.87
2022-10-29T14:13:03.880Z,4.03
2022-10-29T14:16:15.710Z,3.87
2022-10-29T14:19:24.630Z,4.00
2022-10-29T14:22:41.191Z,3.77
2022-10-29T14:25:53.421Z,4.10
2022-10-29T14:28:59.320Z,4.43
2022-10-29T14:32:18.792Z,4.00
2022-10-29T14:35:24.541Z,4.40
2022-10-29T14:38:40.100Z,4.60
2022-10-29T14:41:47.633Z,4.13
2022-10-29T14:44:57.530Z,5.03
2022-10-29T14:48:15.616Z,5.07
2022-10-29T14:51:24.708Z,4.90
2022-10-29T14:54:33.949Z,5.07
2022-10-29T14:57:46.852Z,5.10
2022-10-29T15:00:58.955Z,5.10
2022-10-29T15:04:22.104Z,5.50
2022-10-29T15:07:34.463Z,5.10
2022-10-29T15:10:51.824Z,4.70
2022-10-29T15:13:58.105Z,5.37
2022-10-29T15:17:14.868Z,5.87
2022-10-29T15:20:27.538Z,5.70
2022-10-29T15:23:38.344Z,5.87
2022-10-29T15:26:50.890Z,5.57
2022-10-29T15:29:57.824Z,6.10
2022-10-29T15:33:08.376Z,5.60
2022-10-29T15:36:17.855Z,5.93
2022-10-29T15:39:27.056Z,5.93
2022-10-29T15:42:35.417Z,5.90
2022-10-29T15:45:46.179Z,6.47
2022-10-29T15:48:52.649Z,5.93
2022-10-29T15:52:03.281Z,6.03
2022-10-29T15:55:16.218Z,5.87
2022-10-29T15:58:24.994Z,5.97
2022-10-29T16:01:32.527Z,6.00
2022-10-29T16:04:38.151Z,5.80
2022-10-29T16:07:49.982Z,6.03
2022-10-29T16:10:56.755Z,6.13
2022-10-29T16:14:03.524Z,6.00
2022-10-29T16:17:15.524Z,6.00
2022-10-29T16:20:22.996Z,5.97
2022-10-29T16:23:31.797Z,6.17
2022-10-29T16:26:38.240Z,5.47
2022-10-29T16:29:43.951Z,5.83
2022-10-29T16:32:52.921Z,5.43
2022-10-29T16:35:58.535Z,5.63
2022-10-29T16:39:09.874Z,5.90
2022-10-29T16:42:31.477Z,5.83
2022-10-29T16:45:38.486Z,6.27
2022-10-29T16:48:45.766Z,6.13
2022-10-29T16:51:52.252Z,6.00
2022-10-29T16:55:01.014Z,6.53
2022-10-29T16:58:14.484Z,6.53
2022-10-29T17:01:22.799Z,5.90
2022-10-29T17:04:29.373Z,6.50
2022-10-29T17:07:35.329Z,5.93
2022-10-29T17:10:44.611Z,6.30
2022-10-29T17:13:50.184Z,6.67
2022-10-29T17:16:57.410Z,6.13
2022-10-29T17:20:03.583Z,6.73
2022-10-29T17:23:10.274Z,6.87
2022-10-29T17:26:18.842Z,5.57
2022-10-29T17:29:25.733Z,7.07
2022-10-29T17:32:32.809Z,6.77
2022-10-29T17:35:39.353Z,7.00
2022-10-29T17:38:45.889Z,5.80
2022-10-29T17:41:55.514Z,6.50
2022-10-29T17:45:01.144Z,7.07
2022-10-29T17:48:09.780Z,6.67
2022-10-29T17:51:15.714Z,7.47
2022-10-29T17:54:22.278Z,8.00
2022-10-29T17:57:31.161Z,6.80
2022-10-29T18:00:37.669Z,7.37
2022-10-29T18:03:43.328Z,6.90
2022-10-29T18:06:50.090Z,6.43
2022-10-29T18:09:55.863Z,6.77
2022-10-29T18:13:06.553Z,6.93
2022-10-29T18:16:13.117Z,6.90
2022-10-29T18:19:19.631Z,6.97
2022-10-29T18:22:25.309Z,7.17
2022-10-29T18:25:31.954Z,6.87
2022-10-29T18:28:40.348Z,6.60
2022-10-29T18:31:47.424Z,7.00
2022-10-29T18:34:53.082Z,7.20
2022-10-29T18:38:00.094Z,7.50
2022-10-29T18:41:08.349Z,7.00
2022-10-29T18:44:17.629Z,7.13
2022-10-29T18:47:23.272Z,7.43
2022-10-29T18:50:29.756Z,7.57
2022-10-29T18:53:36.825Z,8.03
2022-10-29T18:56:43.707Z,7.90
2022-10-29T18:59:52.349Z,7.80
2022-10-29T19:02:59.247Z,7.23
2022-10-29T19:06:09.985Z,7.23
2022-10-29T19:09:16.576Z,6.73
2022-10-29T19:12:22.216Z,7.30
2022-10-29T19:15:31.510Z,8.13
2022-10-29T19:18:37.693Z,8.63
2022-10-29T19:21:44.771Z,7.83
2022-10-29T19:24:50.349Z,8.13
2022-10-29T19:27:56.885Z,7.53
2022-10-29T19:31:10.343Z,7.80
2022-10-29T19:34:16.865Z,8.30
2022-10-29T19:37:22.454Z,8.13
2022-10-29T19:40:30.171Z,7.60
2022-10-29T19:43:36.159Z,7.33
2022-10-29T19:46:46.134Z,7.57
2022-10-29T19:49:51.695Z,8.47
2022-10-29T19:52:58.566Z,7.33
2022-10-29T19:56:06.567Z,7.10
2022-10-29T19:59:13.084Z,7.73
2022-10-29T20:02:21.793Z,7.07
2022-10-29T20:05:28.563Z,7.50
2022-10-29T20:08:34.180Z,6.67
2022-10-29T20:11:40.638Z,6.97
2022-10-29T20:14:46.793Z,6.83
2022-10-29T20:17:57.473Z,7.40
2022-10-29T20:24:10.345Z,7.77
2022-10-29T20:27:16.229Z,7.30
2022-10-29T20:30:22.871Z,6.83
2022-10-29T20:33:31.227Z,7.40
2022-10-29T20:36:37.990Z,7.10
2022-10-29T20:39:43.951Z,7.10
2022-10-29T20:42:52.554Z,7.47
2022-10-29T20:46:03.568Z,7.27
2022-10-29T20:49:12.864Z,7.20
2022-10-29T20:52:18.774Z,7.50
2022-10-29T20:55:25.547Z,7.57
2022-10-29T20:58:31.429Z,7.23
2022-10-29T21:01:38.186Z,6.90
2022-10-29T21:04:46.679Z,7.17
2022-10-29T21:07:53.141Z,7.40
2022-10-29T21:11:03.843Z,7.93
2022-10-29T21:14:10.403Z,7.83
2022-10-29T21:17:16.004Z,7.23
2022-10-29T21:20:25.466Z,7.50
2022-10-29T21:23:31.570Z,7.47
2022-10-29T21:26:38.056Z,8.40
2022-10-29T21:29:43.789Z,8.97
2022-10-29T21:32:50.183Z,9.80
2022-10-29T21:35:59.652Z,10.13
2022-10-29T21:39:07.679Z,11.47
2022-10-29T21:42:13.301Z,10.60
2022-10-29T21:45:20.027Z,10.17
2022-10-29T21:48:28.196Z,9.33
2022-10-29T21:51:37.456Z,9.37
2022-10-29T21:54:43.099Z,8.43
2022-10-29T21:57:49.634Z,8.67
2022-10-29T22:00:55.306Z,8.30
2022-10-29T22:04:03.565Z,8.70
2022-10-29T22:07:12.453Z,9.00
2022-10-29T22:10:19.224Z,9.77
2022-10-29T22:13:25.122Z,10.37
2022-10-29T22:16:31.655Z,11.93
2022-10-29T22:19:37.278Z,9.50
2022-10-29T22:22:46.743Z,7.83
2022-10-29T22:25:53.994Z,8.53
2022-10-29T22:29:01.200Z,8.03
2022-10-29T22:32:09.047Z,9.73
2022-10-29T22:35:15.483Z,7.97
2022-10-29T22:38:24.491Z,9.20
2022-10-29T22:41:32.033Z,8.77
2022-10-29T22:44:37.841Z,8.50
2022-10-29T22:47:44.600Z,8.80
2022-10-29T22:50:50.208Z,8.53
2022-10-29T22:54:00.390Z,9.10
2022-10-29T22:57:08.312Z,8.90
2022-10-29T23:00:16.181Z,9.17
2022-10-29T23:03:21.801Z,9.17
2022-10-29T23:06:29.251Z,8.53
2022-10-29T23:09:37.665Z,7.67
2022-10-29T23:12:44.267Z,7.83
2022-10-29T23:15:50.616Z,7.67
2022-10-29T23:18:59.964Z,8.77
2022-10-29T23:22:07.973Z,8.40
2022-10-29T23:25:17.263Z,8.87
2022-10-29T23:28:22.941Z,8.00
2022-10-29T23:31:31.279Z,7.80
2022-10-29T23:34:36.868Z,7.93
2022-10-29T23:37:43.478Z,8.03
2022-10-29T23:40:51.983Z,7.50
2022-10-29T23:43:58.942Z,8.27
2022-10-29T23:47:07.037Z,8.13
2022-10-29T23:50:13.725Z,8.30
2022-10-29T23:53:19.610Z,8.73
2022-10-29T23:56:29.461Z,7.57
2022-10-29T23:59:35.095Z,7.07
